Time,TemperatureF,DewpointF,PressureIn,WindDirection,WindDirectionDegrees,WindSpeedMPH,WindSpeedGustMPH,Humidity,HourlyPrecipIn,Conditions,Clouds,dailyrainin,SoftwareType,DateUTC
2013-05-16 00:00:00,49.3,48.8,29.52,SW,225,0.0,-999.0,98,-99.99,,,0.00,Acu-Link.com,2013-05-16 04:00:00,
2013-05-16 00:15:00,49.1,48.8,29.51,SSW,202,1.1,-999.0,99,-99.99,,,0.00,Acu-Link.com,2013-05-16 04:15:00,
2013-05-16 00:30:00,48.4,48.1,29.51,ESE,112,0.0,-999.0,99,-99.99,,,0.00,Acu-Link.com,2013-05-16 04:30:00,
2013-05-16 00:45:00,47.7,47.4,29.50,SW,225,0.0,-999.0,99,-99.99,,,0.00,Acu-Link.com,2013-05-16 04:45:00,
2013-05-16 01:01:00,47.1,46.8,29.50,SSE,157,0.0,-999.0,99,-99.99,,,0.00,Acu-Link.com,2013-05-16 05:01:00,
2013-05-16 01:16:00,47.7,47.4,29.50,SSW,202,2.2,-999.0,99,-99.99,,,0.00,Acu-Link.com,2013-05-16 05:16:00,
2013-05-16 01:31:00,47.8,47.5,29.50,East,90,0.0,-999.0,99,-99.99,,,0.00,Acu-Link.com,2013-05-16 05:31:00,
2013-05-16 01:46:00,47.7,47.4,29.49,NNE,22,0.0,-999.0,99,-99.99,,,0.00,Acu-Link.com,2013-05-16 05:46:00,
2013-05-16 02:01:00,47.1,46.8,29.51,East,90,0.0,-999.0,99,-99.99,,,0.00,Acu-Link.com,2013-05-16 06:01:00,
2013-05-16 02:17:00,47.3,47.0,29.50,East,90,0.0,-999.0,99,-99.99,,,0.00,Acu-Link.com,2013-05-16 06:17:00,
2013-05-16 02:32:00,46.2,45.9,29.50,NW,315,0.0,-999.0,99,-99.99,,,0.00,Acu-Link.com,2013-05-16 06:32:00,
2013-05-16 02:47:00,46.4,46.1,29.50,ESE,112,0.0,-999.0,99,-99.99,,,0.00,Acu-Link.com,2013-05-16 06:47:00,
2013-05-16 03:02:00,47.5,47.2,29.50,South,180,1.7,-999.0,99,-99.99,,,0.00,Acu-Link.com,2013-05-16 07:02:00,
2013-05-16 03:17:00,46.9,46.6,29.49,West,270,1.7,-999.0,99,-99.99,,,0.00,Acu-Link.com,2013-05-16 07:17:00,
2013-05-16 03:33:00,47.1,46.8,29.49,SW,225,0.0,-999.0,99,-99.99,,,0.00,Acu-Link.com,2013-05-16 07:33:00,
2013-05-16 03:48:00,46.9,46.6,29.50,WSW,247,1.7,-999.0,99,-99.99,,,0.00,Acu-Link.com,2013-05-16 07:48:00,
2013-05-16 04:03:00,46.9,46.6,29.49,SW,225,1.1,-999.0,99,-99.99,,,0.00,Acu-Link.com,2013-05-16 08:03:00,
2013-05-16 04:18:00,46.8,46.5,29.50,SW,225,1.7,-999.0,99,-99.99,,,0.00,Acu-Link.com,2013-05-16 08:18:00,
2013-05-16 04:33:00,46.4,46.1,29.49,West,270,0.0,-999.0,99,-99.99,,,0.00,Acu-Link.com,2013-05-16 08:33:00,
2013-05-16 04:48:00,48.0,47.7,29.49,SSW,202,2.2,-999.0,99,-99.99,,,0.00,Acu-Link.com,2013-05-16 08:48:00,
2013-05-16 05:03:00,48.9,48.6,29.50,West,270,1.7,-999.0,99,-99.99,,,0.00,Acu-Link.com,2013-05-16 09:03:00,
2013-05-16 05:19:00,48.9,48.6,29.51,SSW,202,3.7,-999.0,99,-99.99,,,0.00,Acu-Link.com,2013-05-16 09:19:00,
2013-05-16 05:34:00,49.1,48.0,29.50,SW,225,2.2,-999.0,96,-99.99,,,0.00,Acu-Link.com,2013-05-16 09:34:00,
2013-05-16 05:49:00,50.0,48.1,29.51,South,180,3.2,-999.0,93,-99.99,,,0.00,Acu-Link.com,2013-05-16 09:49:00,
2013-05-16 06:04:00,51.4,48.9,29.51,ESE,112,0.0,-999.0,91,-99.99,,,0.00,Acu-Link.com,2013-05-16 10:04:00,
2013-05-16 06:19:00,53.1,48.7,29.51,South,180,0.0,-999.0,85,-99.99,,,0.00,Acu-Link.com,2013-05-16 10:19:00,
2013-05-16 06:35:00,55.2,49.5,29.52,SSE,157,1.7,-999.0,81,-99.99,,,0.00,Acu-Link.com,2013-05-16 10:35:00,
2013-05-16 06:50:00,57.0,49.9,29.52,WSW,247,2.7,-999.0,77,-99.99,,,0.00,Acu-Link.com,2013-05-16 10:50:00,
2013-05-16 07:05:00,59.5,49.7,29.53,South,180,0.0,-999.0,70,-99.99,,,0.00,Acu-Link.com,2013-05-16 11:05:00,
2013-05-16 07:20:00,61.2,48.9,29.54,West,270,1.7,-999.0,64,-99.99,,,0.00,Acu-Link.com,2013-05-16 11:20:00,
2013-05-16 07:35:00,63.5,48.9,29.53,NNW,337,3.2,-999.0,59,-99.99,,,0.00,Acu-Link.com,2013-05-16 11:35:00,
2013-05-16 07:51:00,64.6,46.6,29.53,WSW,247,2.7,-999.0,52,-99.99,,,0.00,Acu-Link.com,2013-05-16 11:51:00,
2013-05-16 08:06:00,65.3,46.2,29.53,WSW,247,4.2,-999.0,50,-99.99,,,0.00,Acu-Link.com,2013-05-16 12:06:00,
2013-05-16 08:21:00,66.9,45.4,29.54,WNW,292,2.2,-999.0,46,-99.99,,,0.00,Acu-Link.com,2013-05-16 12:21:00,
2013-05-16 08:36:00,65.7,45.5,29.54,SSW,202,2.2,-999.0,48,-99.99,,,0.00,Acu-Link.com,2013-05-16 12:36:00,
2013-05-16 08:51:00,68.0,45.3,29.54,WSW,247,3.2,-999.0,44,-99.99,,,0.00,Acu-Link.com,2013-05-16 12:51:00,
2013-05-16 09:07:00,68.2,46.6,29.53,WSW,247,2.2,-999.0,46,-99.99,,,0.00,Acu-Link.com,2013-05-16 13:07:00,
2013-05-16 09:22:00,70.0,44.6,29.54,West,270,6.3,-999.0,40,-99.99,,,0.00,Acu-Link.com,2013-05-16 13:22:00,
2013-05-16 09:37:00,71.1,44.2,29.53,NNW,337,3.7,-999.0,38,-99.99,,,0.00,Acu-Link.com,2013-05-16 13:37:00,
2013-05-16 09:52:00,73.9,45.3,29.55,NNW,337,4.7,-999.0,36,-99.99,,,0.00,Acu-Link.com,2013-05-16 13:52:00,
2013-05-16 10:07:00,73.0,43.0,29.53,West,270,5.3,-999.0,34,-99.99,,,0.00,Acu-Link.com,2013-05-16 14:07:00,
2013-05-16 10:23:00,75.7,43.7,29.54,NNW,337,3.7,-999.0,32,-99.99,,,0.00,Acu-Link.com,2013-05-16 14:23:00,
2013-05-16 10:38:00,75.7,42.1,29.54,South,180,3.7,-999.0,30,-99.99,,,0.00,Acu-Link.com,2013-05-16 14:38:00,
2013-05-16 10:53:00,75.2,43.3,29.54,WSW,247,8.9,-999.0,32,-99.99,,,0.00,Acu-Link.com,2013-05-16 14:53:00,
2013-05-16 11:08:00,76.1,40.6,29.53,WSW,247,10.4,-999.0,28,-99.99,,,0.00,Acu-Link.com,2013-05-16 15:08:00,
2013-05-16 11:24:00,76.1,39.7,29.54,SW,225,7.8,-999.0,27,-99.99,,,0.00,Acu-Link.com,2013-05-16 15:24:00,
2013-05-16 11:39:00,76.3,40.8,29.53,West,270,7.3,-999.0,28,-99.99,,,0.00,Acu-Link.com,2013-05-16 15:39:00,
2013-05-16 11:54:00,76.3,38.9,29.53,West,270,10.4,-999.0,26,-99.99,,,0.00,Acu-Link.com,2013-05-16 15:54:00,
2013-05-16 12:09:00,79.3,38.3,29.52,SW,225,9.4,-999.0,23,-99.99,,,0.00,Acu-Link.com,2013-05-16 16:09:00,
2013-05-16 12:24:00,79.7,36.3,29.51,WSW,247,7.8,-999.0,21,-99.99,,,0.00,Acu-Link.com,2013-05-16 16:24:00,
2013-05-16 12:40:00,80.8,40.6,29.51,West,270,7.3,-999.0,24,-99.99,,,0.00,Acu-Link.com,2013-05-16 16:40:00,
2013-05-16 12:55:00,80.4,35.6,29.50,West,270,7.3,-999.0,20,-99.99,,,0.00,Acu-Link.com,2013-05-16 16:55:00,
2013-05-16 13:10:00,80.6,38.2,29.50,SW,225,2.2,-999.0,22,-99.99,,,0.00,Acu-Link.com,2013-05-16 17:10:00,
2013-05-16 13:25:00,81.5,37.8,29.49,NNW,337,4.7,-999.0,21,-99.99,,,0.00,Acu-Link.com,2013-05-16 17:25:00,
2013-05-16 13:40:00,80.8,38.4,29.48,WNW,292,5.3,-999.0,22,-99.99,,,0.00,Acu-Link.com,2013-05-16 17:40:00,
2013-05-16 13:56:00,81.7,39.1,29.48,SSE,157,5.3,-999.0,22,-99.99,,,0.00,Acu-Link.com,2013-05-16 17:56:00,
2013-05-16 14:11:00,82.0,38.2,29.49,SW,225,16.6,-999.0,21,-99.99,,,0.00,Acu-Link.com,2013-05-16 18:11:00,
2013-05-16 14:26:00,81.7,37.9,29.48,West,270,6.3,-999.0,21,-99.99,,,0.00,Acu-Link.com,2013-05-16 18:26:00,
2013-05-16 14:41:00,81.1,38.6,29.48,WNW,292,14.5,-999.0,22,-99.99,,,0.00,Acu-Link.com,2013-05-16 18:41:00,
2013-05-16 14:56:00,81.7,37.9,29.48,West,270,11.4,-999.0,21,-99.99,,,0.01,Acu-Link.com,2013-05-16 18:56:00,
2013-05-16 15:12:00,81.9,40.4,29.47,West,270,5.8,-999.0,23,-99.99,,,0.01,Acu-Link.com,2013-05-16 19:12:00,
2013-05-16 15:27:00,81.5,39.0,29.48,West,270,13.5,-999.0,22,-99.99,,,0.01,Acu-Link.com,2013-05-16 19:27:00,
2013-05-16 15:42:00,82.4,39.7,29.47,SW,225,3.7,-999.0,22,-99.99,,,0.01,Acu-Link.com,2013-05-16 19:42:00,
2013-05-16 15:57:00,81.5,37.8,29.48,South,180,7.8,-999.0,21,-99.99,,,0.03,Acu-Link.com,2013-05-16 19:57:00,
2013-05-16 16:12:00,81.5,37.8,29.47,West,270,9.9,-999.0,21,-99.99,,,0.03,Acu-Link.com,2013-05-16 20:12:00,
2013-05-16 16:28:00,81.0,37.4,29.47,NNW,337,3.7,-999.0,21,-99.99,,,0.03,Acu-Link.com,2013-05-16 20:28:00,
2013-05-16 16:43:00,81.0,37.4,29.46,NNW,337,15.0,-999.0,21,-99.99,,,0.03,Acu-Link.com,2013-05-16 20:43:00,
2013-05-16 16:58:00,81.1,37.5,29.47,West,270,8.3,-999.0,21,-99.99,,,0.03,Acu-Link.com,2013-05-16 20:58:00,
2013-05-16 17:13:00,80.6,37.0,29.46,West,270,8.9,-999.0,21,-99.99,,,0.03,Acu-Link.com,2013-05-16 21:13:00,
2013-05-16 17:29:00,81.7,36.7,29.47,SSW,202,5.3,-999.0,20,-99.99,,,0.03,Acu-Link.com,2013-05-16 21:29:00,
2013-05-16 17:44:00,81.7,35.4,29.48,West,270,15.0,-999.0,19,-99.99,,,0.03,Acu-Link.com,2013-05-16 21:44:00,
2013-05-16 17:59:00,81.0,36.1,29.47,West,270,13.0,-999.0,20,-99.99,,,0.03,Acu-Link.com,2013-05-16 21:59:00,
2013-05-16 18:14:00,79.9,33.9,29.47,ESE,112,11.4,-999.0,19,-99.99,,,0.03,Acu-Link.com,2013-05-16 22:14:00,
2013-05-16 18:29:00,79.2,33.4,29.48,WNW,292,8.9,-999.0,19,-99.99,,,0.03,Acu-Link.com,2013-05-16 22:29:00,
2013-05-16 18:45:00,79.7,35.1,29.48,West,270,4.2,-999.0,20,-99.99,,,0.03,Acu-Link.com,2013-05-16 22:45:00,
2013-05-16 19:00:00,78.4,34.0,29.48,West,270,16.1,-999.0,20,-99.99,,,0.03,Acu-Link.com,2013-05-16 23:00:00,
2013-05-16 19:15:00,77.5,34.5,29.49,SSE,157,3.7,-999.0,21,-99.99,,,0.03,Acu-Link.com,2013-05-16 23:15:00,
2013-05-16 19:30:00,75.4,33.9,29.49,WNW,292,10.4,-999.0,22,-99.99,,,0.03,Acu-Link.com,2013-05-16 23:30:00,
2013-05-16 19:46:00,74.7,33.3,29.50,SW,225,6.8,-999.0,22,-99.99,,,0.03,Acu-Link.com,2013-05-16 23:46:00,
2013-05-16 20:01:00,73.9,33.8,29.51,SW,225,5.8,-999.0,23,-99.99,,,0.03,Acu-Link.com,2013-05-17 00:01:00,
2013-05-16 20:16:00,73.2,34.2,29.53,West,270,4.7,-999.0,24,-99.99,,,0.03,Acu-Link.com,2013-05-17 00:16:00,
2013-05-16 20:31:00,72.1,34.3,29.53,WSW,247,2.2,-999.0,25,-99.99,,,0.03,Acu-Link.com,2013-05-17 00:31:00,
2013-05-16 20:46:00,71.4,34.7,29.54,West,270,2.7,-999.0,26,-99.99,,,0.03,Acu-Link.com,2013-05-17 00:46:00,
2013-05-16 21:02:00,70.0,34.5,29.55,West,270,2.7,-999.0,27,-99.99,,,0.03,Acu-Link.com,2013-05-17 01:02:00,
2013-05-16 21:17:00,69.1,33.7,29.57,WNW,292,1.7,-999.0,27,-99.99,,,0.03,Acu-Link.com,2013-05-17 01:17:00,
2013-05-16 21:32:00,68.9,34.4,29.57,West,270,3.2,-999.0,28,-99.99,,,0.03,Acu-Link.com,2013-05-17 01:32:00,
2013-05-16 21:47:00,69.3,32.9,29.58,NW,315,6.3,-999.0,26,-99.99,,,0.03,Acu-Link.com,2013-05-17 01:47:00,
2013-05-16 22:02:00,68.7,31.5,29.58,NNE,22,5.8,-999.0,25,-99.99,,,0.03,Acu-Link.com,2013-05-17 02:02:00,
2013-05-16 22:18:00,69.4,31.0,29.58,WSW,247,4.2,-999.0,24,-99.99,,,0.03,Acu-Link.com,2013-05-17 02:18:00,
2013-05-16 22:33:00,68.7,31.5,29.59,SSW,202,2.2,-999.0,25,-99.99,,,0.03,Acu-Link.com,2013-05-17 02:33:00,
2013-05-16 22:48:00,67.3,32.2,29.61,NW,315,1.7,-999.0,27,-99.99,,,0.03,Acu-Link.com,2013-05-17 02:48:00,
2013-05-16 23:03:00,65.3,39.0,29.63,East,90,5.3,-999.0,38,-99.99,,,0.03,Acu-Link.com,2013-05-17 03:03:00,
2013-05-16 23:18:00,63.1,41.4,29.64,NE,45,3.2,-999.0,45,-99.99,,,0.03,Acu-Link.com,2013-05-17 03:18:00,
2013-05-16 23:34:00,61.5,42.2,29.66,SW,225,5.3,-999.0,49,-99.99,,,0.03,Acu-Link.com,2013-05-17 03:34:00,
2013-05-16 23:49:00,60.3,42.1,29.67,NNW,337,3.7,-999.0,51,-99.99,,,0.03,Acu-Link.com,2013-05-17 03:49:00,